Time;durP1;ratioP1;P1;durP2;ratioP2;P2;SDS_P1;SDS_P2;PMS_P1;PMS_P2;Temp;Humidity;BMP_temperature;BMP_pressure;BME280_temperature;BME280_humidity;BME280_pressure;Samples;Min_cycle;Max_cycle;Signal;HPM_P1;HPM_P2
2021/12/14 00:01:18;;;;;;;25.17;14.30;;;;;;;8.03;99.69;102711.34;5088063;28;20029;-74
2021/12/14 00:03:47;;;;;;;22.00;13.98;;;;;;;8.01;99.32;102715.78;5074951;28;20020;-76
2021/12/14 00:06:14;;;;;;;22.13;13.38;;;;;;;8.01;99.19;102721.94;5074577;28;20086;-76
2021/12/14 00:08:56;;;;;;;23.65;14.00;;;;;;;8.03;99.49;102737.75;5076223;28;20127;-76
2021/12/14 00:11:35;;;;;;;22.90;14.25;;;;;;;8.02;99.41;102736.00;5087512;28;20109;-77
2021/12/14 00:14:25;;;;;;;22.70;13.93;;;;;;;8.07;98.75;102734.25;5074514;28;20024;-77
2021/12/14 00:16:57;;;;;;;20.88;13.02;;;;;;;8.08;98.40;102751.84;5074723;28;20028;-77
2021/12/14 00:19:24;;;;;;;23.17;14.13;;;;;;;8.09;98.38;102755.34;5076094;28;20381;-77
2021/12/14 00:21:53;;;;;;;26.00;14.55;;;;;;;8.06;98.43;102737.75;5086542;28;20028;-77
2021/12/14 00:24:25;;;;;;;25.80;13.35;;;;;;;8.09;98.13;102726.31;5074441;28;20021;-77
2021/12/14 00:27:02;;;;;;;22.73;13.63;;;;;;;8.10;97.76;102735.97;5073519;28;20025;-77
2021/12/14 00:29:33;;;;;;;19.85;13.10;;;;;;;8.12;97.56;102740.38;5074650;28;20086;-77
2021/12/14 00:32:10;;;;;;;26.13;14.82;;;;;;;8.14;97.56;102741.22;5086405;28;20108;-77
2021/12/14 00:34:39;;;;;;;25.67;15.55;;;;;;;8.12;97.68;102743.00;5074142;28;20098;-77
2021/12/14 00:37:08;;;;;;;21.65;14.18;;;;;;;8.13;97.09;102738.59;5073760;28;20100;-77
2021/12/14 00:39:34;;;;;;;22.40;14.10;;;;;;;8.11;97.30;102735.97;5074077;28;20028;-73
2021/12/14 00:41:59;;;;;;;23.55;14.95;;;;;;;8.12;97.30;102724.53;5083422;28;20065;-76
2021/12/14 00:44:25;;;;;;;25.77;15.43;;;;;;;8.12;97.52;102718.38;5073978;28;20028;-77
2021/12/14 00:46:51;;;;;;;24.08;14.63;;;;;;;8.13;97.46;102723.66;5073795;28;20035;-77
2021/12/14 00:49:17;;;;;;;26.67;15.75;;;;;;;8.11;97.30;102728.06;5073936;28;20055;-77
2021/12/14 00:51:42;;;;;;;25.65;15.25;;;;;;;8.14;97.35;102717.47;5078736;28;20020;-77
2021/12/14 00:54:12;;;;;;;24.83;15.55;;;;;;;8.13;97.54;102718.38;5079104;28;20024;-77
2021/12/14 00:56:40;;;;;;;25.38;15.55;;;;;;;8.11;97.48;102721.91;5073628;28;20107;-77
2021/12/14 00:59:07;;;;;;;27.83;16.73;;;;;;;8.06;97.49;102726.31;5073966;28;20094;-77
2021/12/14 01:01:37;;;;;;;23.33;15.15;;;;;;;8.06;97.64;102707.84;5073711;28;20020;-77
2021/12/14 01:04:09;;;;;;;25.95;15.98;;;;;;;8.03;97.84;102688.50;5084676;28;20028;-77
2021/12/14 01:06:44;;;;;;;23.45;15.23;;;;;;;8.03;97.72;102687.63;5073458;28;20024;-75
2021/12/14 01:09:10;;;;;;;23.17;15.18;;;;;;;7.99;98.32;102692.06;5073270;28;20356;-77
2021/12/14 01:11:42;;;;;;;26.98;16.58;;;;;;;7.95;98.27;102687.66;5073383;28;20476;-76
2021/12/14 01:14:33;;;;;;;26.77;16.52;;;;;;;7.98;98.65;102677.09;5081160;28;20033;-77
2021/12/14 01:17:11;;;;;;;24.80;15.57;;;;;;;7.96;98.19;102685.91;5073226;28;20025;-77
2021/12/14 01:19:40;;;;;;;25.23;16.35;;;;;;;7.98;98.42;102679.75;5073337;28;20020;-77
2021/12/14 01:27:27;;;;;;;29.98;18.20;;;;;;;7.91;99.35;102669.22;5093778;28;20043;-78
2021/12/14 01:29:54;;;;;;;30.75;18.45;;;;;;;7.91;99.22;102664.81;5093400;28;20035;-75
2021/12/14 01:32:25;;;;;;;28.30;17.55;;;;;;;7.92;98.99;102660.44;5093311;28;20032;-76
2021/12/14 01:34:50;;;;;;;30.35;17.95;;;;;;;7.96;98.85;102668.31;5092458;28;20040;-77
2021/12/14 01:37:21;;;;;;;27.65;17.85;;;;;;;7.95;99.11;102669.19;5093055;28;20047;-77
2021/12/14 01:42:30;;;;;;;28.20;17.83;;;;;;;7.99;99.40;102689.41;5093140;28;20399;-77
2021/12/14 01:45:08;;;;;;;29.02;18.02;;;;;;;7.99;98.94;102684.13;5092362;28;20028;-76
2021/12/14 01:47:40;;;;;;;29.90;17.65;;;;;;;7.98;99.11;102684.13;5093135;28;20020;-77
2021/12/14 01:50:13;;;;;;;28.73;18.05;;;;;;;7.98;99.15;102684.13;5093103;28;20012;-76
2021/12/14 01:52:39;;;;;;;28.08;17.50;;;;;;;7.98;98.99;102676.19;5092865;28;20537;-76
2021/12/14 01:55:18;;;;;;;26.83;17.50;;;;;;;7.95;98.82;102681.50;5092385;28;20032;-76
2021/12/14 01:57:44;;;;;;;27.55;17.00;;;;;;;7.98;98.92;102684.13;5072700;28;20032;-76
2021/12/14 02:00:19;;;;;;;26.42;16.95;;;;;;;7.97;99.32;102671.84;5072634;28;20016;-79
2021/12/14 02:02:46;;;;;;;27.02;17.52;;;;;;;7.99;98.86;102676.22;5072730;28;20040;-76
2021/12/14 02:05:34;;;;;;;27.48;17.27;;;;;;;7.97;99.16;102680.63;5072762;28;20024;-79
2021/12/14 02:08:04;;;;;;;27.90;17.70;;;;;;;7.99;99.11;102692.06;5091565;28;20032;-78
2021/12/14 02:10:35;;;;;;;26.70;17.67;;;;;;;7.97;98.99;102677.97;5072527;28;20036;-78
2021/12/14 02:13:03;;;;;;;25.48;17.40;;;;;;;7.98;98.69;102687.66;5092706;28;20020;-78
2021/12/14 02:15:33;;;;;;;28.20;17.85;;;;;;;7.99;98.76;102681.50;5092059;28;20072;-79
2021/12/14 02:18:00;;;;;;;28.55;18.38;;;;;;;7.99;98.86;102681.50;5092198;28;20024;-78
2021/12/14 02:20:31;;;;;;;27.95;17.35;;;;;;;7.93;98.71;102676.25;5086199;28;20115;-78
2021/12/14 02:22:58;;;;;;;25.65;17.65;;;;;;;7.98;98.98;102679.75;5072661;28;20029;-78
2021/12/14 02:25:24;;;;;;;29.38;18.60;;;;;;;7.97;98.47;102667.44;5082019;28;20047;-78
2021/12/14 02:27:52;;;;;;;28.15;18.40;;;;;;;7.91;98.90;102675.38;5091873;28;20077;-77
2021/12/14 02:30:21;;;;;;;27.80;17.65;;;;;;;7.93;99.33;102678.00;5092562;28;20024;-77
2021/12/14 02:32:48;;;;;;;30.00;18.70;;;;;;;7.93;99.08;102672.72;5092535;28;20049;-78
2021/12/14 02:35:17;;;;;;;28.80;18.10;;;;;;;7.92;98.99;102682.41;5091735;28;20231;-76
2021/12/14 02:37:51;;;;;;;29.27;18.50;;;;;;;7.94;98.89;102677.09;5092353;28;20028;-78
2021/12/14 02:40:32;;;;;;;27.85;17.98;;;;;;;7.93;99.08;102670.97;5092081;28;20074;-77
2021/12/14 02:42:59;;;;;;;26.75;17.50;;;;;;;7.92;99.08;102665.72;5092570;28;20463;-78
2021/12/14 02:45:25;;;;;;;29.40;18.52;;;;;;;7.92;99.19;102663.94;5092437;28;20035;-75
2021/12/14 02:47:51;;;;;;;26.08;17.25;;;;;;;7.90;99.73;102670.09;5091519;28;20028;-77
2021/12/14 02:50:18;;;;;;;27.80;17.45;;;;;;;7.92;99.57;102663.94;5093116;28;20024;-78
2021/12/14 02:52:43;;;;;;;26.85;18.08;;;;;;;7.93;99.31;102659.53;5096225;28;20016;-77
2021/12/14 02:55:13;;;;;;;28.45;17.65;;;;;;;7.91;99.23;102648.97;5096358;28;20054;-78
2021/12/14 02:57:45;;;;;;;28.60;17.42;;;;;;;7.88;99.54;102655.16;5096214;28;20101;-76
2021/12/14 03:00:16;;;;;;;27.08;17.63;;;;;;;7.86;99.29;102651.66;5095130;28;20028;-77
2021/12/14 03:02:43;;;;;;;28.30;17.83;;;;;;;7.86;99.59;102649.03;5096057;28;20460;-77
2021/12/14 03:05:15;;;;;;;28.77;17.30;;;;;;;7.87;99.22;102652.53;5096204;28;20055;-76
2021/12/14 03:07:46;;;;;;;29.55;17.25;;;;;;;7.87;99.39;102658.66;5095768;28;20089;-77
2021/12/14 03:12:45;;;;;;;29.23;18.37;;;;;;;7.81;99.89;102674.53;5095917;28;20086;-77
2021/12/14 03:15:46;;;;;;;26.92;16.30;;;;;;;7.85;99.58;102675.38;5095804;28;20032;-77
2021/12/14 03:18:15;;;;;;;28.20;18.05;;;;;;;7.82;99.73;102668.34;5095355;28;20024;-78
2021/12/14 03:20:49;;;;;;;27.75;17.40;;;;;;;7.82;99.94;102675.41;5080809;28;20020;-77
2021/12/14 03:23:24;;;;;;;28.63;17.90;;;;;;;7.78;99.97;102671.91;5077572;28;20361;-77
2021/12/14 03:25:54;;;;;;;29.92;18.98;;;;;;;7.75;99.83;102664.00;5095483;28;20048;-77
2021/12/14 03:28:22;;;;;;;27.83;18.13;;;;;;;7.76;100.00;102663.09;5086651;28;20104;-77
2021/12/14 03:30:47;;;;;;;28.20;17.88;;;;;;;7.77;100.00;102672.78;5094968;28;20035;-79
2021/12/14 03:33:21;;;;;;;28.40;17.88;;;;;;;7.80;99.91;102662.22;5096011;28;20376;-76
2021/12/14 03:35:59;;;;;;;27.00;17.58;;;;;;;7.82;100.00;102673.63;5090822;28;20128;-76
2021/12/14 03:38:35;;;;;;;28.33;17.77;;;;;;;7.78;99.99;102687.72;5084230;28;20031;-76
2021/12/14 03:41:04;;;;;;;29.90;18.10;;;;;;;7.79;100.00;102691.25;5095004;28;20077;-78
2021/12/14 03:43:29;;;;;;;25.92;17.35;;;;;;;7.76;100.00;102681.56;5095722;28;20110;-77
2021/12/14 03:45:56;;;;;;;27.38;17.63;;;;;;;7.74;99.87;102691.25;5095386;28;20114;-77
2021/12/14 03:48:23;;;;;;;28.83;17.38;;;;;;;7.75;99.89;102682.47;5094889;28;20502;-76
2021/12/14 03:50:49;;;;;;;28.67;16.85;;;;;;;7.76;99.73;102678.94;5094888;28;20028;-77
2021/12/14 03:53:18;;;;;;;27.25;17.77;;;;;;;7.75;99.60;102668.38;5095251;28;20035;-78
2021/12/14 03:55:47;;;;;;;26.40;16.77;;;;;;;7.73;99.56;102686.84;5076290;28;20051;-77
2021/12/14 03:58:18;;;;;;;27.20;17.17;;;;;;;7.73;99.61;102688.63;5095170;28;20079;-76
2021/12/14 04:00:48;;;;;;;30.58;17.55;;;;;;;7.74;99.88;102687.72;5094612;28;20043;-76
2021/12/14 04:03:16;;;;;;;26.15;17.20;;;;;;;7.70;99.77;102673.69;5095073;28;20031;-78
2021/12/14 04:05:45;;;;;;;26.48;16.67;;;;;;;7.73;99.95;102667.53;5095004;28;20024;-79
2021/12/14 04:08:12;;;;;;;24.80;16.60;;;;;;;7.73;99.42;102667.53;5095012;28;20388;-77
2021/12/14 04:10:39;;;;;;;26.73;16.33;;;;;;;7.71;99.88;102685.97;5094265;28;20039;-76
2021/12/14 04:13:06;;;;;;;27.10;17.45;;;;;;;7.72;99.49;102671.91;5094216;28;20032;-77
2021/12/14 04:15:32;;;;;;;27.25;16.67;;;;;;;7.74;99.92;102677.19;5094931;28;20032;-78
2021/12/14 04:17:57;;;;;;;24.67;15.75;;;;;;;7.70;99.80;102687.75;5095016;28;20034;-78
2021/12/14 04:20:37;;;;;;;25.95;16.70;;;;;;;7.73;99.42;102686.00;5094560;28;20032;-77
2021/12/14 04:23:09;;;;;;;25.30;16.52;;;;;;;7.71;99.43;102697.41;5094739;28;20077;-78
2021/12/14 04:25:35;;;;;;;;;;;;;;;7.72;99.77;102695.66;5095356;28;20032;-76
2021/12/14 04:28:06;;;;;;;24.23;15.75;;;;;;;7.69;99.88;102685.13;5094219;28;19912;-77
2021/12/14 04:30:31;;;;;;;25.42;16.33;;;;;;;7.73;99.69;102686.84;5094703;28;20089;-78
2021/12/14 04:33:02;;;;;;;26.80;16.50;;;;;;;7.71;99.67;102683.34;5093897;28;20036;-78
2021/12/14 04:35:32;;;;;;;24.85;15.55;;;;;;;7.71;99.53;102684.22;5094438;28;20847;-76
2021/12/14 04:37:59;;;;;;;25.05;15.85;;;;;;;7.71;99.01;102683.34;5094253;28;20097;-78
2021/12/14 04:51:58;;;;;;;21.90;14.38;;;;;;;7.65;98.90;102652.59;5012445;28;20100;-77
2021/12/14 04:54:37;;;;;;;23.17;14.45;;;;;;;7.64;99.15;102661.41;5014719;28;20505;-78
2021/12/14 04:57:03;;;;;;;20.27;13.95;;;;;;;7.64;99.29;102656.13;5012166;28;20116;-77
2021/12/14 04:59:32;;;;;;;24.45;15.65;;;;;;;7.68;98.95;102659.63;5011859;28;20033;-77
2021/12/14 05:02:10;;;;;;;23.75;14.30;;;;;;;7.68;98.67;102664.91;5011960;28;20040;-77
2021/12/14 05:04:36;;;;;;;21.02;13.43;;;;;;;7.68;98.74;102659.63;5015131;28;20038;-77
2021/12/14 05:07:32;;;;;;;23.23;13.82;;;;;;;7.67;98.49;102652.59;5012266;28;20418;-78
2021/12/14 05:09:58;;;;;;;21.30;13.73;;;;;;;7.62;98.51;102650.00;5011828;28;20105;-76
2021/12/14 05:12:28;;;;;;;22.55;13.68;;;;;;;7.62;98.56;102654.38;5011817;28;20041;-76
2021/12/14 05:14:54;;;;;;;23.40;13.88;;;;;;;7.63;98.67;102656.13;5014027;28;20033;-77
2021/12/14 05:17:23;;;;;;;21.83;13.65;;;;;;;7.62;98.85;102652.63;5011561;28;20071;-78
2021/12/14 05:19:51;;;;;;;21.85;13.60;;;;;;;7.65;98.64;102662.28;5011592;28;20030;-76
2021/12/14 05:22:23;;;;;;;22.80;14.80;;;;;;;7.61;98.73;102644.69;5022515;28;20091;-78
2021/12/14 05:24:55;;;;;;;20.38;13.07;;;;;;;7.63;98.97;102654.34;5029948;28;20038;-78
2021/12/14 05:27:31;;;;;;;20.73;13.10;;;;;;;7.66;99.01;102656.09;5093293;28;20032;-76
2021/12/14 05:30:10;;;;;;;22.85;13.25;;;;;;;7.69;98.60;102654.34;5093145;28;20024;-77
2021/12/14 05:32:36;;;;;;;22.90;14.35;;;;;;;7.69;98.66;102651.72;5093007;28;20055;-77
2021/12/14 05:35:03;;;;;;;22.60;13.23;;;;;;;7.68;98.71;102657.84;5092668;28;20121;-78
2021/12/14 05:37:32;;;;;;;22.60;13.90;;;;;;;7.65;98.61;102651.75;5092986;28;20142;-77
2021/12/14 05:40:03;;;;;;;24.48;13.55;;;;;;;7.64;98.68;102653.47;5093336;28;20027;-77
2021/12/14 05:45:40;;;;;;;25.08;13.90;;;;;;;7.59;98.90;102671.06;5092870;28;20043;-79
2021/12/14 05:48:08;;;;;;;21.73;13.32;;;;;;;7.61;98.85;102673.69;5074807;28;20028;-76
2021/12/14 05:50:46;;;;;;;23.27;13.88;;;;;;;7.60;98.93;102670.19;5072727;28;20056;-76
2021/12/14 05:53:26;;;;;;;22.20;13.35;;;;;;;7.60;98.97;102670.19;5076842;28;20020;-76
2021/12/14 05:55:52;;;;;;;24.65;15.00;;;;;;;7.60;99.27;102678.13;5092140;28;20024;-78
2021/12/14 05:58:22;;;;;;;24.42;13.73;;;;;;;7.61;98.47;102674.59;5092896;28;20043;-78
2021/12/14 06:00:51;;;;;;;22.50;13.45;;;;;;;7.61;98.60;102674.59;5074213;28;20063;-81
2021/12/14 06:03:21;;;;;;;23.13;13.80;;;;;;;7.63;98.80;102675.44;5092769;28;20085;-79
2021/12/14 06:05:47;;;;;;;25.13;14.65;;;;;;;7.62;98.88;102684.28;5093043;28;20052;-79
2021/12/14 06:08:25;;;;;;;23.98;14.30;;;;;;;7.58;99.05;102671.09;5091935;28;20017;-79
2021/12/14 06:10:51;;;;;;;24.60;14.88;;;;;;;7.60;98.80;102687.78;5091697;28;20023;-80
2021/12/14 06:13:18;;;;;;;23.90;14.13;;;;;;;7.60;98.98;102683.38;5075040;28;20032;-77
2021/12/14 06:15:45;;;;;;;26.15;14.25;;;;;;;7.57;99.35;102688.69;5076246;28;20037;-79
2021/12/14 06:18:11;;;;;;;24.85;13.68;;;;;;;7.60;99.28;102693.06;5086436;28;20024;-81
2021/12/14 06:20:37;;;;;;;24.15;13.68;;;;;;;7.59;99.35;102686.91;5092732;28;20388;-77
2021/12/14 06:23:02;;;;;;;24.75;14.10;;;;;;;7.61;99.34;102686.88;5092338;28;20107;-81
2021/12/14 06:25:29;;;;;;;26.75;13.60;;;;;;;7.63;99.09;102690.41;5093286;28;20031;-77
2021/12/14 06:27:59;;;;;;;24.17;13.98;;;;;;;7.63;98.98;102688.63;5096382;28;20479;-77
2021/12/14 06:30:28;;;;;;;27.35;14.70;;;;;;;7.59;99.12;102697.44;5096876;28;20024;-80
2021/12/14 06:33:11;;;;;;;26.73;14.70;;;;;;;7.62;99.19;102696.56;5096259;28;20535;-80
2021/12/14 06:35:45;;;;;;;26.05;14.02;;;;;;;7.59;99.32;102697.44;5096213;28;20058;-79
2021/12/14 06:41:22;;;;;;;25.70;14.52;;;;;;;7.58;99.67;102679.88;5096598;28;20106;-79
2021/12/14 06:43:57;;;;;;;27.25;14.30;;;;;;;7.60;99.66;102695.69;5096498;28;20024;-79
2021/12/14 06:46:30;;;;;;;28.00;14.00;;;;;;;7.60;99.33;102699.19;5095770;28;20020;-80
2021/12/14 06:49:09;;;;;;;25.35;14.73;;;;;;;7.60;99.62;102708.88;5095692;28;20519;-78
2021/12/14 06:51:42;;;;;;;27.13;14.82;;;;;;;7.60;99.44;102715.03;5092354;28;20039;-79
2021/12/14 06:54:12;;;;;;;25.25;14.27;;;;;;;7.62;99.82;102715.91;5080153;28;20029;-79
2021/12/14 06:56:38;;;;;;;27.88;15.60;;;;;;;7.65;99.57;102715.03;5093609;28;20028;-78
2021/12/14 06:59:08;;;;;;;28.50;14.63;;;;;;;7.65;99.91;102713.25;5094765;28;20483;-79
2021/12/14 07:01:46;;;;;;;26.02;14.52;;;;;;;7.67;99.50;102718.53;5095234;28;20042;-81
2021/12/14 07:04:15;;;;;;;26.75;14.18;;;;;;;7.69;99.83;102716.75;5096260;28;20016;-80
2021/12/14 07:07:08;;;;;;;26.33;15.10;;;;;;;7.67;99.68;102718.53;5095553;28;20364;-78
2021/12/14 07:09:47;;;;;;;24.33;14.10;;;;;;;7.64;99.42;102722.03;5090370;28;20029;-79
2021/12/14 07:12:20;;;;;;;27.23;14.55;;;;;;;7.64;99.78;102708.84;5076480;28;20047;-78
2021/12/14 07:14:58;;;;;;;27.52;15.68;;;;;;;7.64;99.82;102716.75;5094960;28;20030;-79
2021/12/14 07:17:29;;;;;;;28.65;15.65;;;;;;;7.64;100.00;102713.25;5095398;28;20031;-77
2021/12/14 07:20:21;;;;;;;27.35;15.63;;;;;;;7.65;99.84;102707.97;5091722;28;20048;-78
2021/12/14 07:22:53;;;;;;;28.17;14.98;;;;;;;7.63;100.00;102711.50;5071619;28;20068;-76
2021/12/14 07:25:39;;;;;;;27.92;14.48;;;;;;;7.63;100.00;102724.69;5093856;28;20561;-78
2021/12/14 07:28:08;;;;;;;26.45;15.88;;;;;;;7.61;100.00;102722.06;5095010;28;20099;-77
2021/12/14 07:30:40;;;;;;;30.13;16.02;;;;;;;7.64;100.00;102727.31;5093254;28;20023;-77
2021/12/14 07:33:14;;;;;;;31.80;16.58;;;;;;;7.64;100.00;102731.72;5097307;28;20476;-77
2021/12/14 07:35:59;;;;;;;29.50;16.63;;;;;;;7.69;100.00;102744.00;5106399;28;20594;-76
2021/12/14 07:38:31;;;;;;;31.00;16.30;;;;;;;7.70;100.00;102743.13;5086024;28;20032;-74
2021/12/14 07:41:11;;;;;;;29.83;16.45;;;;;;;7.70;100.00;102745.75;5094987;28;20043;-80
2021/12/14 07:43:56;;;;;;;31.38;16.20;;;;;;;7.74;100.00;102749.28;5095214;28;20020;-78
2021/12/14 07:46:27;;;;;;;30.17;15.63;;;;;;;7.70;100.00;102752.81;5095367;28;20537;-77
2021/12/14 07:48:56;;;;;;;34.58;16.80;;;;;;;7.74;100.00;102744.00;5094969;28;20468;-78
2021/12/14 07:51:23;;;;;;;29.35;15.93;;;;;;;7.75;100.00;102753.69;5094205;28;20376;-79
2021/12/14 07:53:54;;;;;;;31.10;17.17;;;;;;;7.73;100.00;102751.94;5095048;28;20473;-79
2021/12/14 07:56:37;;;;;;;33.97;17.55;;;;;;;7.69;100.00;102761.59;5095251;28;20028;-78
2021/12/14 07:59:10;;;;;;;30.65;16.88;;;;;;;7.69;100.00;102762.47;5094773;28;20032;-78
2021/12/14 08:01:35;;;;;;;31.88;17.27;;;;;;;7.67;100.00;102761.59;5094586;28;20105;-80
2021/12/14 08:04:07;;;;;;;34.72;17.70;;;;;;;7.68;100.00;102780.94;5094517;28;20406;-79
2021/12/14 08:06:53;;;;;;;35.63;18.45;;;;;;;7.69;100.00;102769.50;5094800;28;20020;-78
2021/12/14 08:09:33;;;;;;;34.67;17.33;;;;;;;7.66;100.00;102765.13;5094822;28;20472;-78
2021/12/14 08:12:02;;;;;;;36.72;17.58;;;;;;;7.66;100.00;102764.22;5094493;28;20036;-79
2021/12/14 08:14:29;;;;;;;34.83;18.73;;;;;;;7.66;100.00;102772.13;5094359;28;20472;-79
2021/12/14 08:16:59;;;;;;;35.90;19.15;;;;;;;7.65;100.00;102773.91;5094898;28;20019;-77
2021/12/14 08:19:34;;;;;;;35.58;18.00;;;;;;;7.67;100.00;102773.88;5094297;28;20055;-79
2021/12/14 08:22:24;;;;;;;36.90;18.52;;;;;;;7.65;100.00;102770.41;5094528;28;20047;-78
2021/12/14 08:24:50;;;;;;;39.75;19.70;;;;;;;7.68;100.00;102778.28;5083454;28;20464;-78
2021/12/14 08:27:20;;;;;;;39.10;18.77;;;;;;;7.67;100.00;102780.06;5094822;28;20066;-75
2021/12/14 08:29:50;;;;;;;41.20;19.55;;;;;;;7.73;100.00;102794.13;5092229;28;20021;-75
2021/12/14 08:32:20;;;;;;;46.03;20.90;;;;;;;7.78;100.00;102768.63;5094598;28;20110;-74
2021/12/14 08:34:47;;;;;;;45.53;19.90;;;;;;;7.81;100.00;102779.16;5093978;28;20036;-78
2021/12/14 08:37:14;;;;;;;42.75;19.30;;;;;;;7.84;100.00;102781.78;5101392;28;20054;-78
2021/12/14 08:39:50;;;;;;;40.38;19.48;;;;;;;7.84;100.00;102792.34;5114807;28;20570;-75
2021/12/14 08:43:00;;;;;;;41.25;19.67;;;;;;;7.88;100.00;102789.69;5115092;28;20028;-78
2021/12/14 08:45:28;;;;;;;39.05;19.27;;;;;;;7.91;100.00;102801.13;5051234;28;20079;-76
2021/12/14 08:48:02;;;;;;;39.97;19.25;;;;;;;7.93;100.00;102794.97;5030650;28;20506;-79
2021/12/14 08:50:31;;;;;;;47.65;20.00;;;;;;;7.91;100.00;102799.34;5027750;28;20041;-79
2021/12/14 08:52:57;;;;;;;38.50;19.75;;;;;;;7.95;100.00;102800.22;5031036;28;20034;-78
2021/12/14 08:55:27;;;;;;;55.88;23.90;;;;;;;7.96;100.00;102805.50;5030870;28;20095;-77
2021/12/14 08:57:52;;;;;;;53.65;23.42;;;;;;;7.99;100.00;102797.59;5025575;28;20065;-79
2021/12/14 09:00:26;;;;;;;39.10;20.50;;;;;;;7.98;100.00;102797.56;5030635;28;20060;-80
2021/12/14 09:02:58;;;;;;;37.88;19.67;;;;;;;8.03;100.00;102798.44;5030384;28;20034;-80
2021/12/14 09:05:33;;;;;;;36.65;19.08;;;;;;;8.04;100.00;102782.63;5030818;28;20497;-76
2021/12/14 09:07:59;;;;;;;39.60;19.80;;;;;;;8.05;100.00;102791.41;5013640;28;20033;-79
2021/12/14 09:10:28;;;;;;;40.50;19.70;;;;;;;8.08;100.00;102793.16;5030818;28;20021;-78
2021/12/14 09:13:01;;;;;;;43.60;20.20;;;;;;;8.11;100.00;102787.88;5030416;28;20099;-79
2021/12/14 09:15:41;;;;;;;46.63;20.42;;;;;;;8.14;100.00;102788.72;5030488;28;20043;-78
2021/12/14 09:18:08;;;;;;;38.03;19.90;;;;;;;8.16;100.00;102783.47;5029666;28;20037;-79
2021/12/14 09:20:40;;;;;;;47.33;21.08;;;;;;;8.18;100.00;102792.25;5034575;28;20029;-80
2021/12/14 09:23:12;;;;;;;43.42;20.27;;;;;;;8.18;100.00;102787.84;5092470;28;20050;-80
2021/12/14 09:25:38;;;;;;;34.13;19.17;;;;;;;8.23;100.00;102798.38;5092687;28;20059;-80
2021/12/14 09:28:04;;;;;;;36.92;18.88;;;;;;;8.24;100.00;102797.50;5092300;28;20058;-78
2021/12/14 09:30:33;;;;;;;34.53;19.05;;;;;;;8.27;100.00;102801.88;5092534;28;20127;-80
2021/12/14 09:33:00;;;;;;;40.15;18.83;;;;;;;8.29;100.00;102798.34;5091781;28;20028;-77
2021/12/14 09:35:29;;;;;;;42.80;19.95;;;;;;;8.28;100.00;102801.88;5091904;28;20052;-79
2021/12/14 09:37:57;;;;;;;36.08;19.08;;;;;;;8.30;100.00;102804.50;5092415;28;20025;-79
2021/12/14 09:40:31;;;;;;;32.30;17.25;;;;;;;8.37;100.00;102803.59;5092119;28;20035;-80
2021/12/14 09:42:57;;;;;;;35.08;17.75;;;;;;;8.35;100.00;102798.34;5091275;28;20028;-80
2021/12/14 09:45:33;;;;;;;38.58;19.45;;;;;;;8.43;100.00;102795.66;5087513;28;20028;-77
2021/12/14 09:47:59;;;;;;;41.33;17.80;;;;;;;8.46;100.00;102805.38;5087422;28;20448;-76
2021/12/14 09:50:32;;;;;;;39.20;18.95;;;;;;;8.47;100.00;102802.72;5091953;28;20088;-77
2021/12/14 09:52:59;;;;;;;33.67;18.00;;;;;;;8.47;100.00;102802.72;5096501;28;20026;-80
2021/12/14 09:55:32;;;;;;;33.90;17.95;;;;;;;8.49;100.00;102805.34;5074543;28;20403;-79
2021/12/14 09:58:02;;;;;;;46.88;21.95;;;;;;;8.52;100.00;102792.16;5092605;28;20027;-79
2021/12/14 10:01:04;;;;;;;40.47;19.95;;;;;;;8.55;100.00;102792.13;5091400;28;20036;-77
2021/12/14 10:03:30;;;;;;;33.00;18.30;;;;;;;8.58;100.00;102794.75;5090841;28;20030;-78
2021/12/14 10:05:59;;;;;;;64.15;25.27;;;;;;;8.57;100.00;102797.38;5110006;28;20425;-78
2021/12/14 10:08:30;;;;;;;52.63;23.67;;;;;;;8.59;100.00;102799.13;5083292;28;20035;-77
2021/12/14 10:11:04;;;;;;;35.87;18.60;;;;;;;8.72;100.00;102799.06;5101692;28;20028;-78
2021/12/14 10:13:32;;;;;;;38.15;18.95;;;;;;;8.76;100.00;102787.59;5112368;28;20265;-78
2021/12/14 10:16:00;;;;;;;31.52;17.92;;;;;;;8.77;100.00;102797.28;5100291;28;20028;-77
2021/12/14 10:18:37;;;;;;;35.75;18.75;;;;;;;8.81;100.00;102783.16;5091555;28;20115;-76
2021/12/14 10:21:20;;;;;;;32.92;18.17;;;;;;;8.82;100.00;102803.41;5088032;28;20035;-76
2021/12/14 10:23:47;;;;;;;39.55;19.50;;;;;;;8.79;100.00;102795.53;5091278;28;20056;-76
2021/12/14 10:26:15;;;;;;;33.90;18.30;;;;;;;8.76;100.00;102798.16;5090969;28;20036;-76
2021/12/14 10:28:42;;;;;;;33.20;19.02;;;;;;;8.76;100.00;102801.69;5086285;28;20519;-76
2021/12/14 10:31:12;;;;;;;36.45;18.55;;;;;;;8.73;100.00;102798.19;5090978;28;20028;-76
2021/12/14 10:33:42;;;;;;;35.90;17.98;;;;;;;8.68;100.00;102806.13;5073599;28;20507;-76
2021/12/14 10:36:39;;;;;;;36.67;19.20;;;;;;;8.68;100.00;102798.22;5091248;28;20056;-78
2021/12/14 10:44:28;;;;;;;35.83;18.73;;;;;;;8.57;100.00;102802.66;5089683;28;20116;-74
2021/12/14 10:46:55;;;;;;;33.28;17.58;;;;;;;8.58;100.00;102809.72;5091379;28;20028;-76
2021/12/14 10:49:22;;;;;;;34.13;18.23;;;;;;;8.51;100.00;102804.44;5090909;28;20105;-76
2021/12/14 10:51:53;;;;;;;39.70;17.92;;;;;;;8.52;100.00;102803.56;5072793;28;20078;-76
2021/12/14 10:54:19;;;;;;;38.97;18.23;;;;;;;8.54;100.00;102803.56;5099314;28;20591;-76
2021/12/14 10:56:44;;;;;;;34.33;18.25;;;;;;;8.56;100.00;102803.56;5092548;28;20286;-74
2021/12/14 10:59:13;;;;;;;32.63;18.23;;;;;;;8.59;100.00;102804.41;5089809;28;20032;-77
2021/12/14 11:01:39;;;;;;;36.17;18.75;;;;;;;8.58;100.00;102799.16;5091265;28;20020;-74
2021/12/14 11:04:09;;;;;;;35.65;19.48;;;;;;;8.57;100.00;102792.09;5091482;28;20024;-74
2021/12/14 11:06:37;;;;;;;33.03;18.23;;;;;;;8.59;100.00;102795.63;5087738;28;20024;-73
2021/12/14 11:11:49;;;;;;;35.78;18.70;;;;;;;8.62;100.00;102787.66;5104059;28;20114;-73
2021/12/14 11:14:20;;;;;;;39.40;18.52;;;;;;;8.59;100.00;102795.63;5114971;28;20028;-72
2021/12/14 11:19:52;;;;;;;41.80;18.95;;;;;;;8.63;100.00;102794.72;5103357;28;20038;-72
2021/12/14 11:22:23;;;;;;;48.78;20.02;;;;;;;8.58;100.00;102788.59;5074848;28;20028;-74
2021/12/14 11:24:54;;;;;;;36.00;19.23;;;;;;;8.61;100.00;102793.88;5091829;28;20032;-74
2021/12/14 11:27:27;;;;;;;34.97;18.48;;;;;;;8.58;100.00;102792.13;5093969;28;20046;-73
2021/12/14 11:30:28;;;;;;;31.70;17.60;;;;;;;8.59;100.00;102792.97;5093770;28;20085;-74
2021/12/14 11:33:45;;;;;;;34.92;18.13;;;;;;;8.63;100.00;102797.34;5052352;28;20047;-73
2021/12/14 11:36:25;;;;;;;29.60;16.27;;;;;;;8.63;100.00;102787.69;4934211;29;20063;-75
2021/12/14 11:39:08;;;;;;;38.47;18.90;;;;;;;8.61;100.00;102789.44;4918569;29;20036;-74
2021/12/14 11:41:47;;;;;;;53.88;20.48;;;;;;;8.64;100.00;102784.13;4934550;29;20047;-75
2021/12/14 11:44:24;;;;;;;32.75;16.95;;;;;;;8.65;100.00;102787.69;4929600;29;20039;-75
2021/12/14 11:50:20;;;;;;;29.42;16.27;;;;;;;8.69;100.00;102784.97;4918228;29;20404;-73
2021/12/14 11:52:51;;;;;;;32.75;17.40;;;;;;;8.70;100.00;102777.97;4914835;29;20095;-72
2021/12/14 11:55:23;;;;;;;29.80;16.93;;;;;;;8.70;100.00;102775.31;4915077;29;20578;-72
2021/12/14 11:58:01;;;;;;;34.88;17.80;;;;;;;8.68;100.00;102779.72;4916726;29;20476;-75
2021/12/14 12:00:27;;;;;;;28.75;16.75;;;;;;;8.71;100.00;102781.47;4924523;29;20044;-73
2021/12/14 12:02:55;;;;;;;32.05;16.33;;;;;;;8.72;100.00;102776.19;4911709;29;20080;-75
2021/12/14 12:05:31;;;;;;;29.88;15.48;;;;;;;8.72;100.00;102784.13;4912233;29;20060;-73
2021/12/14 12:11:05;;;;;;;31.75;15.80;;;;;;;8.73;100.00;102782.34;5002906;28;20157;-73
2021/12/14 12:13:38;;;;;;;29.77;15.30;;;;;;;8.73;100.00;102777.06;5006393;28;20069;-75
2021/12/14 12:16:17;;;;;;;39.63;18.00;;;;;;;8.70;100.00;102775.31;5001556;28;20037;-73
2021/12/14 12:19:07;;;;;;;30.50;15.23;;;;;;;8.73;100.00;102777.06;5002844;28;20038;-74
2021/12/14 12:21:33;;;;;;;30.02;15.45;;;;;;;8.73;100.00;102769.13;5001891;28;20065;-75